Time;durP1;ratioP1;P1;durP2;ratioP2;P2;SDS_P1;SDS_P2;PMS_P1;PMS_P2;Temp;Humidity;BMP_temperature;BMP_pressure;BME280_temperature;BME280_humidity;BME280_pressure;Samples;Min_cycle;Max_cycle;Signal;HPM_P1;HPM_P2
2022/04/24 00:01:47;;;;;;;8.60;5.78;;;;;;;11.40;56.33;100407.78;5015575;28;20034;-34
2022/04/24 00:04:12;;;;;;;10.95;6.45;;;;;;;11.34;57.01;100414.53;5014724;28;20025;-37
2022/04/24 00:06:39;;;;;;;8.45;6.38;;;;;;;11.40;56.73;100405.19;5014941;28;20033;-34
2022/04/24 00:09:04;;;;;;;8.77;6.18;;;;;;;11.38;57.52;100407.97;5014870;28;20100;-35
2022/04/24 00:11:30;;;;;;;10.98;6.88;;;;;;;11.44;57.52;100401.97;4996967;28;20054;-34
2022/04/24 00:13:56;;;;;;;9.13;7.03;;;;;;;11.23;58.87;100409.97;5010371;28;20104;-35
2022/04/24 00:16:21;;;;;;;9.50;6.53;;;;;;;11.22;59.16;100405.78;4995208;28;20115;-34
2022/04/24 00:18:47;;;;;;;11.98;7.05;;;;;;;11.22;59.14;100401.41;4995043;28;20029;-34
2022/04/24 00:21:12;;;;;;;9.73;7.18;;;;;;;11.21;59.67;100406.78;4993828;28;20025;-35
2022/04/24 00:23:37;;;;;;;12.10;7.53;;;;;;;11.16;60.26;100397.03;4995115;28;20085;-34
2022/04/24 00:26:02;;;;;;;11.25;7.60;;;;;;;11.15;60.81;100405.78;4995454;28;20030;-34
2022/04/24 00:28:28;;;;;;;13.45;7.32;;;;;;;11.25;60.71;100408.00;4993585;28;20022;-34
2022/04/24 00:30:54;;;;;;;12.02;7.70;;;;;;;11.24;60.74;100396.81;4994860;28;20035;-34
2022/04/24 00:33:19;;;;;;;9.63;7.45;;;;;;;11.23;61.01;100399.63;4995013;28;20026;-34
2022/04/24 00:35:45;;;;;;;10.57;7.75;;;;;;;11.06;61.67;100396.63;4994702;28;20168;-35
2022/04/24 00:38:10;;;;;;;12.65;7.93;;;;;;;11.16;61.35;100396.22;4994403;28;20117;-35
2022/04/24 00:40:35;;;;;;;10.13;7.72;;;;;;;11.04;61.78;100402.00;4993991;28;20027;-34
2022/04/24 00:43:01;;;;;;;12.30;8.30;;;;;;;11.10;61.76;100397.03;4994070;28;20081;-34
2022/04/24 00:45:26;;;;;;;11.77;7.68;;;;;;;10.93;62.35;100401.78;4994520;28;20026;-33
2022/04/24 00:47:51;;;;;;;11.57;8.25;;;;;;;10.83;63.21;100402.19;4994632;28;20054;-33
2022/04/24 00:50:17;;;;;;;9.98;8.13;;;;;;;10.86;63.39;100395.84;4994527;28;20152;-34
2022/04/24 00:52:43;;;;;;;14.20;8.45;;;;;;;11.02;63.38;100398.84;4994500;28;20030;-34
2022/04/24 00:55:09;;;;;;;11.95;8.77;;;;;;;11.06;63.10;100396.63;4994419;28;20026;-34
2022/04/24 00:57:34;;;;;;;13.98;8.85;;;;;;;11.07;63.48;100398.22;4994363;28;20081;-34
2022/04/24 01:00:01;;;;;;;11.55;8.60;;;;;;;11.05;63.27;100401.03;4995193;28;20054;-34
2022/04/24 01:02:26;;;;;;;12.73;8.45;;;;;;;10.93;63.75;100400.00;4993103;28;20029;-34
2022/04/24 01:04:51;;;;;;;11.80;9.48;;;;;;;10.97;63.33;100406.38;4994558;28;20026;-35
2022/04/24 01:07:17;;;;;;;13.98;9.57;;;;;;;10.87;63.66;100394.84;4994296;28;20018;-34
2022/04/24 01:09:42;;;;;;;14.15;9.57;;;;;;;10.82;64.02;100403.19;4993030;28;20077;-35
2022/04/24 01:12:08;;;;;;;14.60;9.30;;;;;;;10.77;64.21;100403.78;4992979;28;20022;-35
2022/04/24 01:14:34;;;;;;;13.85;9.82;;;;;;;10.87;64.00;100393.03;5007512;28;20038;-34
2022/04/24 01:17:02;;;;;;;15.32;9.77;;;;;;;10.68;64.65;100393.84;5014085;28;20061;-35
2022/04/24 01:19:28;;;;;;;12.75;9.80;;;;;;;10.49;65.61;100392.78;5014230;28;20072;-35
2022/04/24 01:21:55;;;;;;;13.60;10.07;;;;;;;10.55;65.41;100394.59;4996086;28;20089;-35
2022/04/24 01:24:23;;;;;;;14.35;10.30;;;;;;;10.56;65.49;100388.47;5014263;28;20529;-36
2022/04/24 01:26:48;;;;;;;14.88;10.20;;;;;;;10.53;65.49;100387.06;4996767;28;20041;-35
2022/04/24 01:29:14;;;;;;;16.70;10.85;;;;;;;10.42;65.92;100389.41;5013804;28;20026;-35
2022/04/24 01:31:40;;;;;;;14.02;10.25;;;;;;;10.48;65.73;100383.47;4996041;28;20018;-35
2022/04/24 01:34:05;;;;;;;14.85;9.93;;;;;;;10.42;66.22;100392.00;5013583;28;20033;-34
2022/04/24 01:36:31;;;;;;;14.55;10.27;;;;;;;10.27;66.63;100405.88;5013572;28;20025;-35
2022/04/24 01:38:57;;;;;;;15.65;9.88;;;;;;;10.42;66.37;100399.75;5013360;28;20500;-35
2022/04/24 01:41:22;;;;;;;18.85;10.30;;;;;;;10.27;66.83;100395.53;5014001;28;20362;-35
2022/04/24 01:43:48;;;;;;;14.63;10.00;;;;;;;10.36;66.22;100391.78;5013447;28;20109;-35
2022/04/24 01:46:14;;;;;;;15.05;9.40;;;;;;;10.27;66.66;100398.13;4996005;28;20108;-35
2022/04/24 01:48:39;;;;;;;13.77;9.93;;;;;;;10.09;67.09;100403.75;5013426;28;20029;-35
2022/04/24 01:51:06;;;;;;;16.77;9.98;;;;;;;10.09;67.19;100392.63;5012090;28;20531;-34
2022/04/24 01:53:32;;;;;;;13.68;9.75;;;;;;;10.09;66.98;100395.22;5016346;28;20030;-34
2022/04/24 01:55:58;;;;;;;14.60;10.15;;;;;;;10.03;67.22;100396.00;4999679;28;20018;-34
2022/04/24 01:58:24;;;;;;;13.25;9.52;;;;;;;10.12;66.84;100403.38;5017489;28;20026;-34
2022/04/24 02:00:50;;;;;;;16.02;10.10;;;;;;;9.95;67.19;100396.94;5017635;28;20461;-33
2022/04/24 02:03:16;;;;;;;15.80;9.35;;;;;;;9.97;67.33;100399.34;5017160;28;20156;-34
2022/04/24 02:05:41;;;;;;;13.63;9.68;;;;;;;10.00;67.28;100404.91;5017188;28;20057;-34
2022/04/24 02:08:07;;;;;;;13.80;10.02;;;;;;;9.92;67.88;100403.28;5017319;28;20484;-34
2022/04/24 02:10:32;;;;;;;17.58;9.80;;;;;;;9.70;68.32;100405.19;5016965;28;20033;-34
2022/04/24 02:12:58;;;;;;;13.30;9.57;;;;;;;9.85;67.55;100399.09;5016741;28;20037;-34
2022/04/24 02:15:23;;;;;;;12.75;9.32;;;;;;;9.61;68.37;100408.91;5017718;28;20042;-34
2022/04/24 02:17:48;;;;;;;12.48;9.30;;;;;;;9.65;68.31;100414.47;5016804;28;20045;-37
2022/04/24 02:20:14;;;;;;;15.10;10.18;;;;;;;9.66;68.06;100413.47;5015652;28;20113;-34
2022/04/24 02:22:39;;;;;;;15.07;10.07;;;;;;;9.58;68.58;100417.00;4999960;28;20029;-33
2022/04/24 02:25:05;;;;;;;13.65;9.68;;;;;;;9.65;68.93;100411.88;5016829;28;20034;-33
2022/04/24 02:27:30;;;;;;;18.90;10.05;;;;;;;9.57;68.54;100410.25;4999205;28;20537;-34
2022/04/24 02:29:56;;;;;;;16.73;10.10;;;;;;;9.54;68.85;100409.84;5016743;28;20054;-34
2022/04/24 02:32:21;;;;;;;13.30;8.93;;;;;;;9.32;69.23;100406.50;5016673;28;20381;-36
2022/04/24 02:34:47;;;;;;;15.27;8.70;;;;;;;9.29;69.68;100414.59;5016513;28;20025;-33
2022/04/24 02:37:12;;;;;;;13.93;9.07;;;;;;;9.34;69.80;100407.13;4998898;28;20157;-33
2022/04/24 02:39:37;;;;;;;17.08;9.07;;;;;;;9.34;69.71;100415.66;5016478;28;20072;-33
2022/04/24 02:42:03;;;;;;;14.93;9.43;;;;;;;9.30;69.99;100414.44;5016996;28;20026;-34
2022/04/24 02:44:28;;;;;;;16.15;9.02;;;;;;;9.38;69.90;100416.88;5016305;28;20456;-33
2022/04/24 02:46:54;;;;;;;13.75;8.70;;;;;;;9.41;69.23;100401.03;5016904;28;20032;-34
2022/04/24 02:49:19;;;;;;;12.57;8.95;;;;;;;9.33;69.28;100415.84;5016903;28;20030;-34
2022/04/24 02:51:45;;;;;;;10.88;8.15;;;;;;;9.34;69.70;100413.06;5016361;28;20525;-33
2022/04/24 02:54:11;;;;;;;12.13;8.90;;;;;;;9.42;69.07;100400.03;5016493;28;20030;-33
2022/04/24 02:56:36;;;;;;;12.23;8.27;;;;;;;9.48;68.94;100408.81;5016399;28;20033;-33
2022/04/24 02:59:02;;;;;;;11.95;8.02;;;;;;;9.45;68.87;100412.56;4998465;28;20026;-33
2022/04/24 03:01:28;;;;;;;13.40;9.18;;;;;;;9.26;69.42;100416.59;4998546;28;20030;-33
2022/04/24 03:03:54;;;;;;;13.73;8.25;;;;;;;9.20;70.25;100409.59;4998205;28;20084;-33
2022/04/24 03:06:19;;;;;;;14.18;8.80;;;;;;;9.27;70.00;100414.81;5015934;28;20014;-34
2022/04/24 03:08:46;;;;;;;11.20;7.93;;;;;;;9.26;69.60;100419.19;5014982;28;20121;-34
2022/04/24 03:11:12;;;;;;;12.75;8.13;;;;;;;9.22;69.99;100414.56;5016227;28;20025;-34
2022/04/24 03:13:37;;;;;;;10.88;8.23;;;;;;;9.37;69.61;100412.69;5015717;28;20112;-38
2022/04/24 03:16:03;;;;;;;12.57;8.48;;;;;;;9.28;70.12;100411.25;4998559;28;20030;-34
2022/04/24 03:18:28;;;;;;;11.85;7.97;;;;;;;9.01;69.41;100369.78;5015918;28;20053;-34
2022/04/24 03:20:54;;;;;;;12.32;8.13;;;;;;;9.24;69.42;100418.56;5015999;28;20103;-35
2022/04/24 03:23:19;;;;;;;14.05;7.95;;;;;;;9.21;69.97;100412.97;5016229;28;20033;-34
2022/04/24 03:25:45;;;;;;;11.57;7.82;;;;;;;8.93;70.41;100407.78;5015687;28;20368;-34
2022/04/24 03:28:10;;;;;;;12.60;7.80;;;;;;;8.98;70.17;100408.81;5015602;28;20030;-34
2022/04/24 03:30:36;;;;;;;13.18;7.45;;;;;;;9.13;69.83;100413.13;5015835;28;20032;-34
2022/04/24 03:33:01;;;;;;;10.98;7.50;;;;;;;8.98;70.11;100408.81;5015531;28;20033;-34
2022/04/24 03:35:27;;;;;;;14.48;8.35;;;;;;;9.11;69.69;100407.34;5015493;28;20112;-34
2022/04/24 03:37:52;;;;;;;12.38;7.53;;;;;;;9.04;69.66;100405.50;4998440;28;20026;-34
2022/04/24 03:40:19;;;;;;;12.20;7.50;;;;;;;9.02;69.48;100407.47;5015333;28;20030;-34
2022/04/24 03:42:45;;;;;;;13.13;7.75;;;;;;;9.05;69.56;100411.44;5015580;28;20080;-34
2022/04/24 03:45:11;;;;;;;11.18;7.68;;;;;;;9.08;69.36;100418.03;5015779;28;20026;-34
2022/04/24 03:47:37;;;;;;;11.30;7.20;;;;;;;8.98;69.65;100413.97;5014013;28;20022;-34
2022/04/24 03:50:04;;;;;;;11.10;7.22;;;;;;;9.11;69.29;100412.50;4997737;28;20465;-34
2022/04/24 03:52:29;;;;;;;13.88;7.72;;;;;;;8.90;69.45;100403.78;4981248;28;20073;-35
2022/04/24 03:54:54;;;;;;;13.95;7.55;;;;;;;8.92;69.91;100411.31;5014792;28;20054;-33
2022/04/24 03:57:20;;;;;;;10.82;6.97;;;;;;;8.86;70.15;100412.88;5013683;28;20025;-34
2022/04/24 03:59:45;;;;;;;11.68;7.13;;;;;;;8.90;70.18;100405.59;5015458;28;20417;-37
2022/04/24 04:02:11;;;;;;;13.73;6.88;;;;;;;8.95;69.48;100400.69;5015246;28;20100;-34
2022/04/24 04:04:37;;;;;;;10.88;7.40;;;;;;;9.04;69.07;100409.88;5015219;28;20063;-34
2022/04/24 04:07:03;;;;;;;10.95;7.40;;;;;;;9.01;69.71;100400.72;5015042;28;20381;-34
2022/04/24 04:09:28;;;;;;;10.23;7.25;;;;;;;9.05;69.07;100408.88;5014902;28;20115;-35
2022/04/24 04:11:53;;;;;;;16.10;7.20;;;;;;;8.93;69.30;100424.03;5015555;28;20454;-34
2022/04/24 04:14:18;;;;;;;11.38;6.70;;;;;;;8.78;69.83;100408.66;5014557;28;20041;-34
2022/04/24 04:16:45;;;;;;;12.18;7.07;;;;;;;8.76;70.26;100414.97;5013697;28;20484;-34
2022/04/24 04:19:10;;;;;;;9.93;7.38;;;;;;;8.84;69.47;100408.91;5014903;28;20461;-34
2022/04/24 04:21:36;;;;;;;14.57;7.05;;;;;;;8.67;69.96;100418.63;5014636;28;20117;-34
2022/04/24 04:24:01;;;;;;;11.77;7.50;;;;;;;8.84;69.71;100421.78;5014508;28;20436;-34
2022/04/24 04:26:26;;;;;;;14.93;7.07;;;;;;;8.76;69.89;100423.47;5014566;28;20140;-34
2022/04/24 04:28:51;;;;;;;11.15;6.90;;;;;;;8.78;69.58;100431.03;5013246;28;20109;-34
2022/04/24 04:31:19;;;;;;;9.88;6.68;;;;;;;8.67;69.75;100429.75;5014723;28;20030;-34
2022/04/24 04:33:45;;;;;;;15.00;6.80;;;;;;;8.51;70.97;100435.91;5014439;28;20029;-34
2022/04/24 04:36:10;;;;;;;11.82;7.05;;;;;;;8.75;69.46;100432.19;5014317;28;20029;-34
2022/04/24 04:38:36;;;;;;;9.95;6.53;;;;;;;8.79;68.90;100432.63;5015074;28;20026;-34
2022/04/24 04:41:01;;;;;;;11.52;6.47;;;;;;;8.61;70.09;100439.97;5015052;28;20093;-34
2022/04/24 04:43:27;;;;;;;13.32;7.10;;;;;;;8.70;69.56;100434.53;4996663;28;20025;-34
2022/04/24 04:45:53;;;;;;;11.10;6.75;;;;;;;8.78;69.36;100442.13;5014770;28;20045;-34
2022/04/24 04:48:18;;;;;;;10.18;6.45;;;;;;;8.79;68.55;100442.94;5014131;28;20030;-34
2022/04/24 04:50:44;;;;;;;11.93;6.55;;;;;;;8.64;68.80;100444.78;5014109;28;20021;-33
2022/04/24 04:53:09;;;;;;;11.15;6.70;;;;;;;8.66;69.13;100445.34;4997119;28;20038;-35
2022/04/24 04:55:35;;;;;;;12.85;6.70;;;;;;;8.83;69.00;100446.72;5013587;28;20037;-33
2022/04/24 04:58:00;;;;;;;11.80;6.80;;;;;;;8.72;68.45;100447.22;4996675;28;20026;-35
2022/04/24 05:00:25;;;;;;;11.02;6.70;;;;;;;8.67;69.27;100450.34;4996361;28;20096;-33
2022/04/24 05:02:51;;;;;;;8.38;6.05;;;;;;;8.74;68.75;100447.81;5014478;28;20117;-34
2022/04/24 05:05:16;;;;;;;9.80;5.95;;;;;;;8.86;68.19;100458.44;5013942;28;20033;-34
2022/04/24 05:07:42;;;;;;;12.00;6.78;;;;;;;8.62;67.92;100426.09;5013865;28;20100;-34
2022/04/24 05:10:08;;;;;;;17.05;6.47;;;;;;;8.64;68.52;100458.44;5013755;28;20034;-34
2022/04/24 05:12:33;;;;;;;10.63;6.60;;;;;;;8.76;68.84;100466.50;5014041;28;20048;-34
2022/04/24 05:15:00;;;;;;;9.15;6.55;;;;;;;8.92;68.02;100457.72;5013660;28;20047;-34
2022/04/24 05:17:27;;;;;;;10.77;6.57;;;;;;;8.57;68.76;100468.69;5012782;28;20030;-36
2022/04/24 05:19:52;;;;;;;10.30;6.30;;;;;;;8.86;68.23;100459.28;5013019;28;20431;-36
2022/04/24 05:22:18;;;;;;;10.82;6.40;;;;;;;8.79;68.46;100466.13;5012420;28;20101;-34
2022/04/24 05:24:43;;;;;;;10.77;6.50;;;;;;;8.82;67.92;100470.91;4979659;28;20084;-34
2022/04/24 05:27:08;;;;;;;11.60;5.97;;;;;;;8.77;67.85;100468.06;5012761;28;20097;-34
2022/04/24 05:29:34;;;;;;;11.10;6.53;;;;;;;8.76;68.17;100469.84;5013538;28;20453;-34
2022/04/24 05:31:59;;;;;;;9.45;6.30;;;;;;;8.86;67.44;100464.44;5013595;28;20022;-35
2022/04/24 05:34:24;;;;;;;10.73;6.00;;;;;;;9.19;66.92;100469.09;5013624;28;20080;-34
2022/04/24 05:36:49;;;;;;;12.23;6.60;;;;;;;9.15;66.44;100475.56;5014006;28;20026;-34
2022/04/24 05:39:15;;;;;;;9.80;6.10;;;;;;;9.14;66.45;100467.03;5013470;28;20025;-34
2022/04/24 05:41:40;;;;;;;13.07;6.18;;;;;;;9.06;67.16;100484.41;5013683;28;20052;-34
2022/04/24 05:44:05;;;;;;;9.70;6.38;;;;;;;9.15;67.07;100478.16;5013543;28;20032;-35
2022/04/24 05:46:30;;;;;;;8.70;6.45;;;;;;;9.12;66.58;100476.75;5013537;28;20033;-34
2022/04/24 05:48:56;;;;;;;8.73;6.10;;;;;;;9.19;65.99;100484.56;5013439;28;20097;-34
2022/04/24 05:51:21;;;;;;;8.77;5.95;;;;;;;9.09;66.32;100474.56;5013608;28;20032;-34
2022/04/24 05:53:47;;;;;;;10.98;6.50;;;;;;;9.16;66.23;100482.34;5013409;28;20026;-34
2022/04/24 05:56:12;;;;;;;7.88;5.90;;;;;;;10.74;61.78;100486.09;5012365;28;20057;-37
2022/04/24 05:58:37;;;;;;;13.13;5.85;;;;;;;14.71;48.85;100478.25;5013272;28;20080;-34
2022/04/24 06:01:02;;;;;;;7.90;5.70;;;;;;;16.37;44.55;100491.88;4995595;28;20022;-34
2022/04/24 06:03:28;;;;;;;8.88;5.63;;;;;;;18.93;39.02;100487.56;5013228;28;20025;-35
2022/04/24 06:05:53;;;;;;;10.95;5.45;;;;;;;17.25;41.17;100488.94;5013330;28;20094;-33
2022/04/24 06:08:18;;;;;;;12.68;5.18;;;;;;;17.96;40.95;100497.81;5013212;28;20022;-36
2022/04/24 06:10:44;;;;;;;6.00;4.85;;;;;;;17.84;40.40;100491.91;5013469;28;20432;-33
2022/04/24 06:13:09;;;;;;;8.77;5.05;;;;;;;17.94;40.32;100488.63;5013022;28;20025;-35
2022/04/24 06:15:34;;;;;;;8.18;5.10;;;;;;;17.13;40.49;100500.25;5013205;28;20076;-34
2022/04/24 06:18:00;;;;;;;8.30;5.20;;;;;;;18.50;39.07;100489.28;5013599;28;20026;-35
2022/04/24 06:20:27;;;;;;;8.15;5.25;;;;;;;19.82;36.42;100483.47;5013151;28;20029;-34
2022/04/24 06:22:54;;;;;;;9.48;5.05;;;;;;;20.78;34.86;100489.28;5013432;28;20048;-35
2022/04/24 06:25:33;;;;;;;9.65;4.70;;;;;;;18.99;37.13;100485.78;5013345;28;20026;-36
2022/04/24 06:27:59;;;;;;;6.80;4.80;;;;;;;20.21;35.51;100490.97;5013456;28;20026;-33
2022/04/24 06:30:27;;;;;;;9.57;4.85;;;;;;;20.17;35.49;100487.28;5013058;28;20022;-35
2022/04/24 06:32:53;;;;;;;9.30;4.55;;;;;;;21.03;32.94;100488.47;4979414;28;20489;-33
2022/04/24 06:35:18;;;;;;;8.10;4.82;;;;;;;21.60;32.65;100477.66;5013020;28;20157;-34
2022/04/24 06:37:49;;;;;;;6.25;4.40;;;;;;;21.83;31.70;100493.88;5013193;28;20018;-35
2022/04/24 06:40:17;;;;;;;5.93;4.60;;;;;;;20.49;33.79;100489.75;4997390;28;20084;-36
2022/04/24 06:42:48;;;;;;;8.35;4.20;;;;;;;20.95;32.96;100487.19;5016796;28;20022;-36
2022/04/24 06:45:14;;;;;;;7.17;4.37;;;;;;;21.39;32.48;100491.91;5016712;28;20038;-40
2022/04/24 06:47:39;;;;;;;13.40;5.13;;;;;;;22.57;31.15;100492.22;5016339;28;20294;-33
2022/04/24 06:50:05;;;;;;;7.15;4.18;;;;;;;22.50;31.08;100482.00;5016425;28;20032;-34
2022/04/24 06:52:30;;;;;;;7.60;4.40;;;;;;;21.46;32.06;100494.25;4998883;28;20041;-34
2022/04/24 06:54:58;;;;;;;5.75;4.32;;;;;;;22.41;30.98;100490.75;5014956;28;20456;-36
2022/04/24 06:57:23;;;;;;;7.80;4.40;;;;;;;19.92;34.55;100509.75;5016078;28;20033;-33
2022/04/24 06:59:49;;;;;;;9.23;4.82;;;;;;;20.93;33.32;100505.81;5016382;28;20018;-34
2022/04/24 07:02:14;;;;;;;7.00;4.65;;;;;;;20.81;32.89;100509.78;5016414;28;20109;-33
2022/04/24 07:04:39;;;;;;;5.57;4.32;;;;;;;22.57;30.54;100500.13;5016492;28;20029;-33
2022/04/24 07:07:05;;;;;;;6.68;4.55;;;;;;;22.18;30.94;100513.22;5016170;28;20025;-33
2022/04/24 07:09:30;;;;;;;7.03;4.70;;;;;;;20.50;34.31;100504.44;5016049;28;20116;-32
2022/04/24 07:11:55;;;;;;;8.17;4.60;;;;;;;22.26;30.91;100523.97;5015935;28;20034;-33
2022/04/24 07:14:20;;;;;;;7.45;4.53;;;;;;;19.57;35.24;100502.47;5015109;28;20307;-36
2022/04/24 07:16:46;;;;;;;8.40;4.60;;;;;;;18.74;35.81;100502.88;4997889;28;20381;-35
2022/04/24 07:19:11;;;;;;;8.80;4.95;;;;;;;19.81;34.91;100502.88;5015825;28;20373;-34
2022/04/24 07:21:36;;;;;;;6.40;4.82;;;;;;;18.75;36.35;100506.28;5015528;28;20025;-34
2022/04/24 07:24:03;;;;;;;7.57;4.90;;;;;;;19.93;35.22;100492.97;5016206;28;20049;-33
2022/04/24 07:26:28;;;;;;;9.48;4.60;;;;;;;21.56;32.76;100502.13;5015462;28;20079;-33
2022/04/24 07:28:53;;;;;;;8.50;5.07;;;;;;;20.09;34.69;100509.56;4998193;28;20093;-34
2022/04/24 07:31:19;;;;;;;5.50;4.75;;;;;;;22.15;32.19;100500.59;4997876;28;20069;-34
2022/04/24 07:33:45;;;;;;;12.20;6.32;;;;;;;18.98;34.99;100503.34;4998276;28;20026;-35
2022/04/24 07:36:11;;;;;;;7.55;4.75;;;;;;;18.87;36.28;100523.41;4998179;28;20026;-34
2022/04/24 07:38:39;;;;;;;7.35;5.32;;;;;;;18.82;36.25;100499.81;5014238;28;20086;-34
2022/04/24 07:41:05;;;;;;;7.78;5.07;;;;;;;20.31;34.17;100522.47;4982380;28;20025;-34
2022/04/24 07:43:30;;;;;;;7.28;4.80;;;;;;;20.81;33.43;100522.91;5015399;28;20032;-34
2022/04/24 07:45:55;;;;;;;8.90;5.10;;;;;;;20.34;34.22;100515.94;5015692;28;20025;-35
2022/04/24 07:48:21;;;;;;;9.00;5.10;;;;;;;18.92;36.83;100520.81;5015555;28;20434;-34
2022/04/24 07:50:49;;;;;;;7.57;5.30;;;;;;;19.14;35.94;100520.75;5015284;28;20060;-35
2022/04/24 07:53:14;;;;;;;11.60;5.45;;;;;;;21.05;33.52;100516.06;5015410;28;20034;-35
2022/04/24 07:55:41;;;;;;;7.07;5.05;;;;;;;19.76;34.19;100521.19;5015081;28;20041;-33
2022/04/24 07:58:07;;;;;;;6.80;5.15;;;;;;;17.70;37.87;100524.63;5015545;28;20026;-35
2022/04/24 08:00:33;;;;;;;9.82;5.32;;;;;;;17.88;38.29;100524.34;5015293;28;20456;-32
2022/04/24 08:03:13;;;;;;;6.97;5.47;;;;;;;15.97;42.61;100520.50;5014974;28;20042;-34
2022/04/24 08:05:50;;;;;;;9.25;5.63;;;;;;;18.51;38.05;100518.84;4981221;28;20025;-34
2022/04/24 08:08:18;;;;;;;8.90;5.00;;;;;;;19.67;36.27;100533.22;5014881;28;20037;-35
2022/04/24 08:10:49;;;;;;;10.07;5.90;;;;;;;18.01;38.86;100536.28;5014684;28;20030;-32
2022/04/24 08:13:15;;;;;;;9.90;4.95;;;;;;;16.63;41.82;100531.44;5014626;28;20053;-35
2022/04/24 08:15:41;;;;;;;6.85;5.47;;;;;;;14.95;45.34;100533.72;5014940;28;20040;-35
2022/04/24 08:18:06;;;;;;;8.38;5.47;;;;;;;15.37;45.23;100536.31;5014938;28;20038;-37
2022/04/24 08:20:34;;;;;;;10.50;5.03;;;;;;;15.19;45.31;100537.19;5014693;28;20111;-33
2022/04/24 08:23:01;;;;;;;7.53;5.25;;;;;;;17.01;42.69;100538.69;5014555;28;20022;-33
2022/04/24 08:25:29;;;;;;;13.85;6.20;;;;;;;16.23;43.23;100532.25;5014775;28;20041;-34
2022/04/24 08:27:56;;;;;;;8.68;5.43;;;;;;;16.46;43.20;100537.41;5014761;28;20422;-35
2022/04/24 08:30:23;;;;;;;7.30;5.10;;;;;;;17.25;42.66;100530.72;5014940;28;20033;-35
2022/04/24 08:32:50;;;;;;;9.07;5.75;;;;;;;17.43;42.45;100533.09;4980700;28;20032;-33
2022/04/24 08:35:18;;;;;;;7.72;5.68;;;;;;;17.74;41.10;100533.53;4997018;28;20469;-33
2022/04/24 08:37:44;;;;;;;8.57;5.72;;;;;;;16.82;43.35;100532.09;5014418;28;20025;-34
2022/04/24 08:40:12;;;;;;;9.95;5.75;;;;;;;17.83;41.02;100526.91;5014144;28;20496;-34
2022/04/24 08:42:37;;;;;;;7.15;5.57;;;;;;;16.77;41.93;100529.38;5014343;28;20021;-35
2022/04/24 08:45:04;;;;;;;9.57;5.40;;;;;;;17.29;41.70;100539.66;4996482;28;20049;-35
2022/04/24 08:47:30;;;;;;;9.68;5.45;;;;;;;17.99;40.28;100509.59;4996649;28;20072;-35
2022/04/24 08:49:58;;;;;;;8.27;5.65;;;;;;;18.44;39.27;100529.47;4996855;28;20473;-35
2022/04/24 08:52:24;;;;;;;7.38;5.80;;;;;;;17.27;41.45;100532.06;4996233;28;20030;-34
2022/04/24 08:54:50;;;;;;;7.72;5.60;;;;;;;16.67;43.10;100543.00;5014849;28;20378;-35
2022/04/24 08:57:17;;;;;;;9.75;5.63;;;;;;;16.30;43.83;100538.13;4996132;28;20030;-36
2022/04/24 08:59:43;;;;;;;6.53;4.95;;;;;;;17.43;41.24;100546.16;5014332;28;20164;-33
2022/04/24 09:02:10;;;;;;;14.95;5.57;;;;;;;18.78;39.36;100537.19;5013632;28;20057;-34
2022/04/24 09:04:37;;;;;;;7.20;5.38;;;;;;;18.30;40.65;100544.78;5013823;28;20037;-35
2022/04/24 09:07:08;;;;;;;10.88;5.60;;;;;;;19.38;38.78;100542.16;5013976;28;20469;-34
2022/04/24 09:09:42;;;;;;;9.48;5.07;;;;;;;20.19;36.67;100540.28;5013873;28;20401;-33
2022/04/24 09:12:09;;;;;;;7.75;5.10;;;;;;;19.47;37.37;100545.09;5013974;28;20530;-36
2022/04/24 09:14:35;;;;;;;7.85;5.38;;;;;;;19.20;37.20;100545.16;4996722;28;20054;-35
2022/04/24 09:17:07;;;;;;;9.52;5.30;;;;;;;17.84;40.00;100553.81;5013752;28;20021;-36
2022/04/24 09:19:33;;;;;;;10.35;5.78;;;;;;;18.37;39.71;100552.44;5013893;28;20389;-34
2022/04/24 09:22:06;;;;;;;8.27;5.35;;;;;;;19.26;38.52;100540.75;5013597;28;20022;-33
2022/04/24 09:24:41;;;;;;;15.80;5.38;;;;;;;19.18;38.97;100552.47;4996828;28;20461;-36
2022/04/24 09:27:07;;;;;;;9.90;5.32;;;;;;;19.32;39.47;100552.84;4996488;28;20488;-35
2022/04/24 09:29:33;;;;;;;9.57;5.20;;;;;;;19.78;35.78;100561.84;5013572;28;20026;-35
2022/04/24 09:31:58;;;;;;;11.60;5.32;;;;;;;18.29;39.81;100555.47;5013521;28;20030;-34
2022/04/24 09:34:32;;;;;;;9.88;5.38;;;;;;;19.49;37.04;100557.97;5013523;28;20076;-35
2022/04/24 09:37:02;;;;;;;7.88;5.10;;;;;;;18.61;38.84;100560.78;5013736;28;20034;-35
2022/04/24 09:39:32;;;;;;;11.05;5.25;;;;;;;20.21;37.89;100557.34;5013625;28;20457;-33
2022/04/24 09:42:11;;;;;;;9.27;5.32;;;;;;;19.92;36.62;100551.72;5013618;28;20037;-33
2022/04/24 09:44:46;;;;;;;8.40;5.22;;;;;;;19.28;38.45;100555.19;5013483;28;20026;-43
2022/04/24 09:47:13;;;;;;;7.88;5.50;;;;;;;20.22;35.88;100553.66;4996252;28;20065;-34
2022/04/24 09:49:49;;;;;;;7.22;5.22;;;;;;;20.24;36.20;100550.81;5013263;28;20022;-32
2022/04/24 09:52:20;;;;;;;13.73;6.15;;;;;;;18.42;39.89;100555.91;5013125;28;20081;-33
2022/04/24 09:54:48;;;;;;;11.82;5.50;;;;;;;17.81;39.94;100558.50;5013102;28;20106;-36
2022/04/24 09:57:14;;;;;;;9.32;5.55;;;;;;;18.67;39.01;100565.84;4995252;28;20033;-33
2022/04/24 09:59:45;;;;;;;9.02;5.45;;;;;;;19.24;37.23;100516.63;5013416;28;20357;-34
2022/04/24 10:02:12;;;;;;;10.98;5.00;;;;;;;20.02;37.08;100554.41;4995544;28;20030;-35
2022/04/24 10:04:39;;;;;;;8.75;5.80;;;;;;;19.30;37.44;100554.94;5013045;28;20108;-34
2022/04/24 10:07:11;;;;;;;9.60;5.05;;;;;;;19.40;37.91;100560.25;4996578;28;20029;-40
2022/04/24 10:09:41;;;;;;;7.38;5.38;;;;;;;19.73;36.88;100555.78;4995555;28;20022;-40
2022/04/24 10:12:09;;;;;;;6.85;5.18;;;;;;;19.91;37.00;100558.00;5012620;28;20029;-41
2022/04/24 10:14:42;;;;;;;11.93;5.32;;;;;;;20.40;36.81;100559.50;5015331;28;20571;-41
2022/04/24 10:17:26;;;;;;;11.48;5.70;;;;;;;19.96;36.80;100567.72;4999348;28;20416;-43
2022/04/24 10:20:16;;;;;;;7.13;5.40;;;;;;;20.37;37.10;100565.28;5016841;28;20037;-41
2022/04/24 10:22:44;;;;;;;7.20;5.55;;;;;;;18.97;37.21;100572.47;5017201;28;20044;-41
2022/04/24 10:25:10;;;;;;;12.95;5.82;;;;;;;19.32;39.06;100561.50;5017083;28;20467;-42
2022/04/24 10:27:40;;;;;;;9.25;5.80;;;;;;;19.21;38.38;100570.31;5016564;28;20046;-41
2022/04/24 10:30:07;;;;;;;7.43;5.05;;;;;;;20.45;36.75;100556.91;5016877;28;20029;-40
2022/04/24 10:32:32;;;;;;;10.80;5.40;;;;;;;20.23;36.21;100559.72;5016812;28;20054;-41
2022/04/24 10:34:59;;;;;;;7.85;5.40;;;;;;;21.26;35.14;100564.16;5016723;28;20026;-44
2022/04/24 10:37:33;;;;;;;10.13;5.28;;;;;;;20.33;36.27;100566.84;5016659;28;20112;-45
2022/04/24 10:40:00;;;;;;;7.88;5.38;;;;;;;19.74;36.35;100567.88;5016735;28;20029;-47
2022/04/24 10:42:31;;;;;;;8.00;5.60;;;;;;;18.26;39.28;100554.13;4999143;28;20030;-47
2022/04/24 10:45:08;;;;;;;10.70;5.35;;;;;;;18.66;38.72;100568.72;5016719;28;20491;-49
2022/04/24 10:47:48;;;;;;;8.70;5.63;;;;;;;20.00;36.31;100559.09;5015196;28;20096;-46
2022/04/24 10:50:18;;;;;;;6.25;4.80;;;;;;;21.09;35.74;100563.63;5016036;28;20029;-46
2022/04/24 10:52:45;;;;;;;11.48;5.03;;;;;;;20.58;36.32;100563.56;4999045;28;20033;-48
2022/04/24 10:55:22;;;;;;;13.00;5.43;;;;;;;20.48;35.59;100557.19;5016513;28;20045;-47
2022/04/24 10:57:54;;;;;;;11.55;5.38;;;;;;;19.29;37.00;100566.47;5016878;28;20026;-47
2022/04/24 11:00:24;;;;;;;9.18;5.30;;;;;;;20.20;35.35;100566.28;5016573;28;20038;-47
2022/04/24 11:02:51;;;;;;;7.68;5.43;;;;;;;20.61;36.96;100553.31;5016728;28;20061;-46
2022/04/24 11:05:21;;;;;;;10.50;5.38;;;;;;;21.44;34.67;100562.09;5016466;28;20451;-46
2022/04/24 11:07:48;;;;;;;8.38;5.35;;;;;;;20.90;35.77;100552.84;5015978;28;20052;-44
2022/04/24 11:10:20;;;;;;;19.77;5.30;;;;;;;21.19;34.47;100561.78;5015919;28;20496;-46
2022/04/24 11:12:48;;;;;;;9.43;5.10;;;;;;;20.86;34.41;100549.16;5016282;28;20424;-46
2022/04/24 11:15:14;;;;;;;6.88;4.97;;;;;;;19.57;36.29;100562.75;5015793;28;20489;-43
2022/04/24 11:17:41;;;;;;;6.93;4.63;;;;;;;20.99;35.41;100550.50;5016259;28;20029;-45
2022/04/24 11:20:13;;;;;;;7.28;4.57;;;;;;;21.08;33.53;100549.69;4998267;28;20080;-46
2022/04/24 11:22:50;;;;;;;7.78;4.47;;;;;;;21.19;33.57;100540.75;5016005;28;20029;-44